Awobasan Maru — 7JQF — position and weather

sailwx.info

Track history (hours):
 
Tides and Currents Weather Stations Pressure Air Temp Water Temp Dewpoint Dewpoint Depression Visibility Wind Speed Wind Dir Waves Ship Positions

Awobasan Maru

Last reported at 2018-May-04 04:04 UTC. Time now 2018-Jun-25 09:42 UTC.
Position N 01°20' E 103°18'.
Warning: this ship's position is 52 days out of date.

Length 320 m; draft 11.5 m.

Type: Cargo ship. MMSI: 432952000.

Date/timePositionNaut miles runAvg speedWind from/ knotsBaromVisibWave heightAir tempDewpointWater temp
2018-May-04 04:04N 01°20' E 103°18'113.1
2018-May-04 03:59N 01°19' E 103°19'613.0
2018-May-04 03:29N 01°15' E 103°24'612.9
2018-May-04 03:00N 01°13' E 103°30'611.8
2018-May-04 02:30N 01°12' E 103°36'510.4
2018-May-04 02:00N 01°10' E 103°41'510.2
2018-May-04 01:30N 01°09' E 103°46'510.2
2018-May-04 01:00N 01°12' E 103°50'510.9
2018-May-04 00:30N 01°14' E 103°55'611.9
2018-May-04 00:00N 01°16' E 104°01'3 7.0
2018-May-03 23:30N 01°17' E 104°04'1 2.0
2018-May-03 23:00N 01°18' E 104°04'0 0.1
2018-May-03 22:30N 01°18' E 104°04'0 0.0
2018-May-03 21:53N 01°18' E 104°04'0 0.0
2018-May-03 21:24N 01°18' E 104°04'0 0.0
2018-May-03 20:57N 01°18' E 104°04'0 0.0
2018-May-03 20:30N 01°18' E 104°04'0 0.0
2018-May-03 19:55N 01°18' E 104°04'0 0.1
2018-May-03 19:30N 01°18' E 104°04'0 0.1
2018-May-03 18:34N 01°18' E 104°04'0 0.1
2018-May-03 18:29N 01°18' E 104°04'0 0.2
2018-May-03 17:59N 01°18' E 104°04'0 0.2
2018-May-03 17:29N 01°18' E 104°04'0 0.1
2018-May-03 16:56N 01°18' E 104°04'0 0.2
2018-May-03 16:30N 01°18' E 104°04'0 0.1
2018-May-03 15:45N 01°18' E 104°04'0 0.0
2018-May-03 15:29N 01°18' E 104°04'0 0.1
2018-May-03 14:40N 01°18' E 104°04'0 0.0
2018-May-03 14:22N 01°18' E 104°04'0 0.1
2018-May-03 13:58N 01°18' E 104°04'0 0.0
2018-May-03 13:26N 01°18' E 104°04'0 0.0
2018-May-03 12:43N 01°18' E 104°04'0 0.0
2018-May-03 12:28N 01°18' E 104°04'0 0.0
2018-May-03 11:58N 01°18' E 104°04'0 0.1
2018-May-03 11:27N 01°18' E 104°04'0 0.0
2018-May-03 10:52N 01°18' E 104°04'0 0.0
2018-May-03 10:28N 01°18' E 104°04'0 0.1
2018-May-03 09:54N 01°18' E 104°04'0 0.2
2018-May-03 09:26N 01°18' E 104°04'0 0.0
2018-May-03 08:57N 01°18' E 104°04'0 0.0
2018-May-03 08:27N 01°18' E 104°04'0 0.0
2018-May-03 07:49N 01°18' E 104°04'0 0.0
2018-May-03 07:28N 01°18' E 104°04'0 0.0
2018-May-03 06:58N 01°18' E 104°04'0 0.7
2018-May-03 06:30N 01°18' E 104°04'3 6.0
2018-May-03 06:00N 01°18' E 104°07'4 6.8
2018-May-03 05:28N 01°17' E 104°11'3 6.9
2018-May-03 04:58N 01°17' E 104°14'4 8.5
2018-May-03 04:30N 01°18' E 104°18'4 7.6
2018-May-03 03:55N 01°21' E 104°22'4 8.4
2018-May-03 03:27N 01°23' E 104°25'  
2018-Apr-24 18:49N 34°31' E 137°02'2 7.5
2018-Apr-24 18:30N 34°33' E 137°01'611.8
2018-Apr-24 17:59N 34°37' E 136°55'713.4
2018-Apr-24 17:30N 34°41' E 136°49'713.3
2018-Apr-24 17:00N 34°47' E 136°46'613.0
2018-Apr-24 16:30N 34°54' E 136°46'611.7
2018-Apr-24 16:00N 34°59' E 136°49'4 8.2
2018-Apr-24 15:30N 35°02' E 136°52'0 0.6
2018-Apr-24 14:59N 35°02' E 136°52'0 0.0
2018-Apr-24 14:29N 35°02' E 136°52'0 0.0
2018-Apr-24 13:59N 35°02' E 136°52'0 0.0
2018-Apr-24 13:29N 35°02' E 136°52'0 0.0
2018-Apr-24 12:59N 35°02' E 136°52'0 0.0
2018-Apr-24 12:29N 35°02' E 136°52'0 0.0
2018-Apr-24 11:59N 35°02' E 136°52'0 0.0
2018-Apr-24 11:29N 35°02' E 136°52'0 0.0
2018-Apr-24 10:59N 35°02' E 136°52'0 0.0
2018-Apr-24 10:29N 35°02' E 136°52'0 0.0
2018-Apr-24 09:59N 35°02' E 136°52'0 0.0
2018-Apr-24 09:29N 35°02' E 136°52'0 0.0
2018-Apr-24 08:59N 35°02' E 136°52'0 0.0
2018-Apr-24 08:29N 35°02' E 136°52'0 0.0
2018-Apr-24 07:59N 35°02' E 136°52'0 0.0
2018-Apr-24 07:29N 35°02' E 136°52'0 0.0
2018-Apr-24 06:59N 35°02' E 136°52'0 0.0
2018-Apr-24 06:29N 35°02' E 136°52'0 0.0
2018-Apr-24 05:59N 35°02' E 136°52'0 0.0
2018-Apr-24 05:29N 35°02' E 136°52'0 0.0
2018-Apr-24 04:59N 35°02' E 136°52'0 0.0
2018-Apr-24 04:29N 35°02' E 136°52'  
Track history (hours):
 
Tides and Currents Weather Stations Pressure Air Temp Water Temp Dewpoint Dewpoint Depression Visibility Wind Speed Wind Dir Waves Ship Positions

Awobasan Maru

Last reported at 2018-May-04 04:04 UTC. Time now 2018-Jun-25 09:42 UTC.
Position N 01°20' E 103°18'.
Warning: this ship's position is 52 days out of date.

Length 320 m; draft 11.5 m.

Type: Cargo ship. MMSI: 432952000.

Date/timePositionNaut miles runAvg speedWind from/ knotsBaromVisibWave heightAir tempDewpointWater temp
2018-May-04 04:04N 01°20' E 103°18'113.1
2018-May-04 03:59N 01°19' E 103°19'613.0
2018-May-04 03:29N 01°15' E 103°24'612.9
2018-May-04 03:00N 01°13' E 103°30'611.8
2018-May-04 02:30N 01°12' E 103°36'510.4
2018-May-04 02:00N 01°10' E 103°41'510.2
2018-May-04 01:30N 01°09' E 103°46'510.2
2018-May-04 01:00N 01°12' E 103°50'510.9
2018-May-04 00:30N 01°14' E 103°55'611.9
2018-May-04 00:00N 01°16' E 104°01'3 7.0
2018-May-03 23:30N 01°17' E 104°04'1 2.0
2018-May-03 23:00N 01°18' E 104°04'0 0.1
2018-May-03 22:30N 01°18' E 104°04'0 0.0
2018-May-03 21:53N 01°18' E 104°04'0 0.0
2018-May-03 21:24N 01°18' E 104°04'0 0.0
2018-May-03 20:57N 01°18' E 104°04'0 0.0
2018-May-03 20:30N 01°18' E 104°04'0 0.0
2018-May-03 19:55N 01°18' E 104°04'0 0.1
2018-May-03 19:30N 01°18' E 104°04'0 0.1
2018-May-03 18:34N 01°18' E 104°04'0 0.1
2018-May-03 18:29N 01°18' E 104°04'0 0.2
2018-May-03 17:59N 01°18' E 104°04'0 0.2
2018-May-03 17:29N 01°18' E 104°04'0 0.1
2018-May-03 16:56N 01°18' E 104°04'0 0.2
2018-May-03 16:30N 01°18' E 104°04'0 0.1
2018-May-03 15:45N 01°18' E 104°04'0 0.0
2018-May-03 15:29N 01°18' E 104°04'0 0.1
2018-May-03 14:40N 01°18' E 104°04'0 0.0
2018-May-03 14:22N 01°18' E 104°04'0 0.1
2018-May-03 13:58N 01°18' E 104°04'0 0.0
2018-May-03 13:26N 01°18' E 104°04'0 0.0
2018-May-03 12:43N 01°18' E 104°04'0 0.0
2018-May-03 12:28N 01°18' E 104°04'0 0.0
2018-May-03 11:58N 01°18' E 104°04'0 0.1
2018-May-03 11:27N 01°18' E 104°04'0 0.0
2018-May-03 10:52N 01°18' E 104°04'0 0.0
2018-May-03 10:28N 01°18' E 104°04'0 0.1
2018-May-03 09:54N 01°18' E 104°04'0 0.2
2018-May-03 09:26N 01°18' E 104°04'0 0.0
2018-May-03 08:57N 01°18' E 104°04'0 0.0
2018-May-03 08:27N 01°18' E 104°04'0 0.0
2018-May-03 07:49N 01°18' E 104°04'0 0.0
2018-May-03 07:28N 01°18' E 104°04'0 0.0
2018-May-03 06:58N 01°18' E 104°04'0 0.7
2018-May-03 06:30N 01°18' E 104°04'3 6.0
2018-May-03 06:00N 01°18' E 104°07'4 6.8
2018-May-03 05:28N 01°17' E 104°11'3 6.9
2018-May-03 04:58N 01°17' E 104°14'4 8.5
2018-May-03 04:30N 01°18' E 104°18'4 7.6
2018-May-03 03:55N 01°21' E 104°22'4 8.4
2018-May-03 03:27N 01°23' E 104°25'  
2018-Apr-24 18:49N 34°31' E 137°02'2 7.5
2018-Apr-24 18:30N 34°33' E 137°01'611.8
2018-Apr-24 17:59N 34°37' E 136°55'713.4
2018-Apr-24 17:30N 34°41' E 136°49'713.3
2018-Apr-24 17:00N 34°47' E 136°46'613.0
2018-Apr-24 16:30N 34°54' E 136°46'611.7
2018-Apr-24 16:00N 34°59' E 136°49'4 8.2
2018-Apr-24 15:30N 35°02' E 136°52'0 0.6
2018-Apr-24 14:59N 35°02' E 136°52'0 0.0
2018-Apr-24 14:29N 35°02' E 136°52'0 0.0
2018-Apr-24 13:59N 35°02' E 136°52'0 0.0
2018-Apr-24 13:29N 35°02' E 136°52'0 0.0
2018-Apr-24 12:59N 35°02' E 136°52'0 0.0
2018-Apr-24 12:29N 35°02' E 136°52'0 0.0
2018-Apr-24 11:59N 35°02' E 136°52'0 0.0
2018-Apr-24 11:29N 35°02' E 136°52'0 0.0
2018-Apr-24 10:59N 35°02' E 136°52'0 0.0
2018-Apr-24 10:29N 35°02' E 136°52'0 0.0
2018-Apr-24 09:59N 35°02' E 136°52'0 0.0
2018-Apr-24 09:29N 35°02' E 136°52'0 0.0
2018-Apr-24 08:59N 35°02' E 136°52'0 0.0
2018-Apr-24 08:29N 35°02' E 136°52'0 0.0
2018-Apr-24 07:59N 35°02' E 136°52'0 0.0
2018-Apr-24 07:29N 35°02' E 136°52'0 0.0
2018-Apr-24 06:59N 35°02' E 136°52'0 0.0
2018-Apr-24 06:29N 35°02' E 136°52'0 0.0
2018-Apr-24 05:59N 35°02' E 136°52'0 0.0
2018-Apr-24 05:29N 35°02' E 136°52'0 0.0
2018-Apr-24 04:59N 35°02' E 136°52'0 0.0
2018-Apr-24 04:29N 35°02' E 136°52'  

Dump ship's entire track history